Time;durP1;ratioP1;P1;durP2;ratioP2;P2;SDS_P1;SDS_P2;PMS_P1;PMS_P2;Temp;Humidity;BMP_temperature;BMP_pressure;BME280_temperature;BME280_humidity;BME280_pressure;Samples;Min_cycle;Max_cycle;Signal;HPM_P1;HPM_P2
2023/08/03 00:00:33;;;;;;;4.45;4.05;;;14.80;99.90;;;;;;5025130;28;20454;-65
2023/08/03 00:03:00;;;;;;;5.28;3.47;;;14.90;99.90;;;;;;5027384;28;20055;-67
2023/08/03 00:05:28;;;;;;;5.18;4.68;;;14.80;99.90;;;;;;5016235;28;20170;-66
2023/08/03 00:07:55;;;;;;;6.40;4.53;;;14.90;99.90;;;;;;5022361;28;20864;-65
2023/08/03 00:10:22;;;;;;;4.70;4.30;;;14.80;99.90;;;;;;5023953;28;20091;-67
2023/08/03 00:12:50;;;;;;;5.40;4.72;;;14.90;99.90;;;;;;5023539;28;20511;-65
2023/08/03 00:15:17;;;;;;;8.00;4.28;;;14.90;99.90;;;;;;5022790;28;20038;-67
2023/08/03 00:17:44;;;;;;;6.60;4.68;;;14.90;99.90;;;;;;5022919;28;20108;-65
2023/08/03 00:20:11;;;;;;;5.53;4.95;;;14.90;99.90;;;;;;5023487;28;20559;-68
2023/08/03 00:22:38;;;;;;;6.32;4.80;;;14.90;99.90;;;;;;5025274;28;20060;-66
2023/08/03 00:25:05;;;;;;;6.53;4.82;;;14.90;99.90;;;;;;5021793;28;20052;-66
2023/08/03 00:27:32;;;;;;;9.38;5.22;;;15.00;99.90;;;;;;5023870;28;20073;-67
2023/08/03 00:29:59;;;;;;;6.88;4.45;;;15.00;99.90;;;;;;5026716;28;20055;-66
2023/08/03 00:32:26;;;;;;;5.72;4.45;;;15.00;99.90;;;;;;5024036;28;20384;-67
2023/08/03 00:34:54;;;;;;;5.75;5.07;;;15.00;99.90;;;;;;5025045;28;20041;-66
2023/08/03 00:37:21;;;;;;;6.13;5.63;;;15.00;99.90;;;;;;5023550;28;20048;-66
2023/08/03 00:39:48;;;;;;;4.95;4.55;;;15.00;99.90;;;;;;5021286;28;20550;-66
2023/08/03 00:42:15;;;;;;;5.30;4.70;;;15.10;99.90;;;;;;5021282;28;20108;-66
2023/08/03 00:44:42;;;;;;;4.82;4.35;;;15.10;99.90;;;;;;5024895;28;20084;-65
2023/08/03 00:47:09;;;;;;;6.03;4.95;;;15.10;99.90;;;;;;5018610;28;20073;-66
2023/08/03 00:49:36;;;;;;;7.57;4.97;;;15.20;99.90;;;;;;5020938;28;20095;-66
2023/08/03 00:52:03;;;;;;;5.80;5.10;;;15.20;99.90;;;;;;5026220;28;20041;-65
2023/08/03 00:54:30;;;;;;;7.05;5.22;;;15.20;99.90;;;;;;5022605;28;20060;-63
2023/08/03 00:56:57;;;;;;;8.07;4.63;;;15.20;99.90;;;;;;5025730;28;20045;-65
2023/08/03 00:59:24;;;;;;;7.28;4.40;;;15.30;99.90;;;;;;5021326;28;20057;-67
2023/08/03 01:01:51;;;;;;;6.45;5.32;;;15.30;99.90;;;;;;5021975;28;20095;-66
2023/08/03 01:04:18;;;;;;;7.28;6.32;;;15.30;99.90;;;;;;5021896;28;20503;-66
2023/08/03 01:06:46;;;;;;;7.22;5.13;;;15.30;99.90;;;;;;5024770;28;20064;-65
2023/08/03 01:09:13;;;;;;;5.78;4.82;;;15.40;99.90;;;;;;5021268;28;20430;-67
2023/08/03 01:11:42;;;;;;;7.80;6.63;;;15.40;99.90;;;;;;5021335;28;20099;-67
2023/08/03 01:14:10;;;;;;;5.45;5.05;;;15.40;99.90;;;;;;5023836;28;20050;-68
2023/08/03 01:16:37;;;;;;;6.32;5.75;;;15.40;99.90;;;;;;5024610;28;20057;-68
2023/08/03 01:19:05;;;;;;;6.10;5.15;;;15.50;99.90;;;;;;5022983;28;20061;-66
2023/08/03 01:21:34;;;;;;;7.60;5.35;;;15.50;99.90;;;;;;5022581;28;20132;-67
2023/08/03 01:24:01;;;;;;;5.93;5.32;;;15.50;99.90;;;;;;5021194;28;20042;-68
2023/08/03 01:26:27;;;;;;;7.00;6.15;;;15.50;99.90;;;;;;5021383;28;20049;-66
2023/08/03 01:28:54;;;;;;;9.35;5.10;;;15.60;99.90;;;;;;5021799;28;20129;-65
2023/08/03 01:31:21;;;;;;;5.97;5.30;;;15.60;99.90;;;;;;5023956;28;20056;-67
2023/08/03 01:33:49;;;;;;;6.30;5.70;;;15.60;99.90;;;;;;5020301;28;20123;-67
2023/08/03 01:36:16;;;;;;;6.97;5.72;;;15.60;99.90;;;;;;5024509;28;20041;-65
2023/08/03 01:38:44;;;;;;;6.20;5.57;;;15.70;99.90;;;;;;5018123;28;20044;-67
2023/08/03 01:41:11;;;;;;;10.02;5.80;;;15.70;99.90;;;;;;5021816;28;20119;-66
2023/08/03 01:43:38;;;;;;;8.55;6.25;;;15.70;99.90;;;;;;5027746;28;20119;-66
2023/08/03 01:46:05;;;;;;;10.25;5.53;;;15.70;99.90;;;;;;5024105;28;20061;-66
2023/08/03 01:48:32;;;;;;;7.65;5.35;;;15.70;99.90;;;;;;5018448;28;20057;-66
2023/08/03 01:50:59;;;;;;;8.00;5.57;;;15.70;99.90;;;;;;5020249;28;20037;-65
2023/08/03 01:53:26;;;;;;;6.30;5.70;;;15.70;99.90;;;;;;5020897;28;20060;-66
2023/08/03 01:55:52;;;;;;;6.65;6.05;;;15.80;99.90;;;;;;5022126;28;20061;-65
2023/08/03 01:58:20;;;;;;;6.22;5.72;;;15.80;99.90;;;;;;5019120;28;20791;-66
2023/08/03 02:00:47;;;;;;;7.65;6.95;;;15.80;99.90;;;;;;5022815;28;21135;-65
2023/08/03 02:03:16;;;;;;;6.47;5.88;;;15.80;99.90;;;;;;5033280;28;20053;-66
2023/08/03 02:05:43;;;;;;;7.35;6.68;;;15.90;99.90;;;;;;5023415;28;20114;-66
2023/08/03 02:08:10;;;;;;;12.82;6.60;;;15.90;99.90;;;;;;5021077;28;20057;-69
2023/08/03 02:10:38;;;;;;;6.45;5.88;;;15.90;99.90;;;;;;5024465;28;20049;-67
2023/08/03 02:13:05;;;;;;;7.80;7.00;;;15.90;99.90;;;;;;5035793;28;20049;-65
2023/08/03 02:15:32;;;;;;;7.00;6.07;;;15.90;99.90;;;;;;5023067;28;20049;-65
2023/08/03 02:17:59;;;;;;;10.05;6.88;;;16.00;99.90;;;;;;5029475;28;20575;-66
2023/08/03 02:20:26;;;;;;;7.28;6.57;;;16.00;99.90;;;;;;5022982;28;20140;-67
2023/08/03 02:22:53;;;;;;;11.25;6.07;;;16.00;99.90;;;;;;5023998;28;20150;-67
2023/08/03 02:25:23;;;;;;;8.38;7.38;;;16.00;99.90;;;;;;5019696;28;20092;-66
2023/08/03 02:27:53;;;;;;;9.13;7.43;;;16.00;99.90;;;;;;5021539;28;20108;-66
2023/08/03 02:30:21;;;;;;;13.68;8.73;;;16.00;99.90;;;;;;5036905;28;20165;-68
2023/08/03 02:32:49;;;;;;;8.15;7.45;;;16.00;99.90;;;;;;5039507;28;20051;-67
2023/08/03 02:35:17;;;;;;;11.63;8.35;;;16.00;99.90;;;;;;5018572;28;20163;-65
2023/08/03 02:37:46;;;;;;;8.03;7.33;;;16.10;99.90;;;;;;5022492;28;20049;-68
2023/08/03 02:40:17;;;;;;;8.98;8.05;;;16.00;99.90;;;;;;5034704;28;20574;-65
2023/08/03 02:42:46;;;;;;;14.48;9.07;;;16.10;99.90;;;;;;5037099;28;20053;-67
2023/08/03 02:45:13;;;;;;;10.30;8.07;;;16.10;99.90;;;;;;5036290;28;20060;-65
2023/08/03 02:47:41;;;;;;;9.43;7.80;;;16.10;99.90;;;;;;5019872;28;20152;-66
2023/08/03 02:50:09;;;;;;;9.60;7.65;;;16.10;99.90;;;;;;5025078;28;20145;-66
2023/08/03 02:52:37;;;;;;;11.57;10.40;;;16.10;99.90;;;;;;5022007;28;21465;-66
2023/08/03 02:55:05;;;;;;;9.95;7.95;;;16.10;99.90;;;;;;5038893;28;20421;-66
2023/08/03 02:57:33;;;;;;;8.70;7.88;;;16.20;99.90;;;;;;5025081;28;20107;-65
2023/08/03 03:00:04;;;;;;;14.43;8.85;;;16.20;99.90;;;;;;5025547;28;20056;-67
2023/08/03 03:02:31;;;;;;;11.55;8.63;;;16.10;99.90;;;;;;5023617;28;20069;-67
2023/08/03 03:04:58;;;;;;;12.00;8.40;;;16.20;99.90;;;;;;5025328;28;20067;-66
2023/08/03 03:07:25;;;;;;;10.32;9.05;;;16.20;99.90;;;;;;5020187;28;20475;-66
2023/08/03 03:09:55;;;;;;;8.82;8.07;;;16.20;99.90;;;;;;5023778;28;20045;-66
2023/08/03 03:12:22;;;;;;;9.63;8.35;;;16.20;99.90;;;;;;5023866;28;20113;-66
2023/08/03 03:14:50;;;;;;;11.82;8.65;;;16.20;99.90;;;;;;5026007;28;20156;-66
2023/08/03 03:17:17;;;;;;;10.13;9.07;;;16.20;99.90;;;;;;5028541;28;20147;-66
2023/08/03 03:19:46;;;;;;;10.77;8.98;;;16.20;99.90;;;;;;5039010;28;20050;-70
2023/08/03 03:22:14;;;;;;;10.18;9.20;;;16.20;99.90;;;;;;5030920;28;20056;-66
2023/08/03 03:24:41;;;;;;;10.38;7.03;;;16.20;99.90;;;;;;5025605;28;20042;-66
2023/08/03 03:27:08;;;;;;;9.98;9.07;;;16.20;99.90;;;;;;5027213;28;20045;-69
2023/08/03 03:29:43;;;;;;;10.90;8.90;;;16.20;99.90;;;;;;5039690;28;20363;-68
2023/08/03 03:32:11;;;;;;;9.27;8.20;;;16.30;99.90;;;;;;5023364;28;20916;-67
2023/08/03 03:34:38;;;;;;;11.13;9.18;;;16.20;99.90;;;;;;5025037;28;20140;-66
2023/08/03 03:37:07;;;;;;;10.05;8.07;;;16.20;99.90;;;;;;5039515;28;20055;-67
2023/08/03 03:39:35;;;;;;;13.20;10.90;;;16.20;99.90;;;;;;5021298;28;20053;-65
2023/08/03 03:42:06;;;;;;;12.88;10.65;;;16.20;99.90;;;;;;5025253;28;20052;-67
2023/08/03 03:44:34;;;;;;;14.13;8.63;;;16.20;99.90;;;;;;5025924;28;20062;-66
2023/08/03 03:47:01;;;;;;;10.80;8.35;;;16.20;99.90;;;;;;5026118;28;20072;-69
2023/08/03 03:49:33;;;;;;;10.38;7.78;;;16.20;99.90;;;;;;5018858;28;20451;-67
2023/08/03 03:52:01;;;;;;;16.10;10.10;;;16.20;99.90;;;;;;5023865;28;20049;-67
2023/08/03 03:54:28;;;;;;;8.88;7.97;;;16.20;99.90;;;;;;5019425;28;20112;-68
2023/08/03 03:56:58;;;;;;;11.07;7.97;;;16.10;99.90;;;;;;5025240;28;20045;-67
2023/08/03 03:59:28;;;;;;;10.05;9.07;;;16.10;99.90;;;;;;5021237;28;20145;-67
2023/08/03 04:01:54;;;;;;;9.43;8.52;;;16.10;99.90;;;;;;5033326;28;20049;-68
2023/08/03 04:04:21;;;;;;;10.10;9.10;;;16.10;99.90;;;;;;5025505;28;20124;-65
2023/08/03 04:06:49;;;;;;;10.73;8.60;;;16.10;99.90;;;;;;5039160;28;20053;-67
2023/08/03 04:09:15;;;;;;;11.18;9.57;;;16.10;99.90;;;;;;5035112;28;20049;-66
2023/08/03 04:11:42;;;;;;;9.35;8.45;;;16.10;99.90;;;;;;5021298;28;20049;-66
2023/08/03 04:14:10;;;;;;;13.15;10.05;;;16.10;99.90;;;;;;5021736;28;20033;-67
2023/08/03 04:16:37;;;;;;;12.35;9.65;;;16.10;99.90;;;;;;5022016;28;20049;-66
2023/08/03 04:19:03;;;;;;;9.60;8.70;;;16.20;99.90;;;;;;5024290;28;20081;-67
2023/08/03 04:21:30;;;;;;;10.35;9.35;;;16.10;99.90;;;;;;5023342;28;20049;-66
2023/08/03 04:23:57;;;;;;;13.02;9.52;;;16.10;99.90;;;;;;5018029;28;20060;-66
2023/08/03 04:26:24;;;;;;;10.93;8.02;;;16.10;99.90;;;;;;5023329;28;20494;-70
2023/08/03 04:28:53;;;;;;;10.65;9.68;;;16.10;99.90;;;;;;5024684;28;20037;-65
2023/08/03 04:31:21;;;;;;;12.63;9.00;;;16.10;99.90;;;;;;5022162;28;20038;-65
2023/08/03 04:33:51;;;;;;;10.77;8.48;;;16.10;99.90;;;;;;5021599;28;20547;-68
2023/08/03 04:36:19;;;;;;;10.30;8.68;;;16.00;99.90;;;;;;5021428;28;20072;-65
2023/08/03 04:38:46;;;;;;;12.88;9.55;;;16.10;99.90;;;;;;5017068;28;20049;-67
2023/08/03 04:41:14;;;;;;;8.88;7.63;;;16.10;99.90;;;;;;5023478;28;20151;-68
2023/08/03 04:43:44;;;;;;;9.27;8.48;;;16.10;99.90;;;;;;5025011;28;20137;-65
2023/08/03 04:46:14;;;;;;;9.75;8.32;;;16.10;99.90;;;;;;5036135;28;20050;-64
2023/08/03 04:48:41;;;;;;;14.55;9.60;;;16.10;99.90;;;;;;5026596;28;20054;-66
2023/08/03 04:51:09;;;;;;;12.43;7.32;;;16.10;99.90;;;;;;5037485;28;20057;-66
2023/08/03 04:53:37;;;;;;;10.13;7.88;;;16.10;99.90;;;;;;5022241;28;20147;-65
2023/08/03 04:56:05;;;;;;;10.98;8.80;;;16.10;99.90;;;;;;5022232;28;20049;-65
2023/08/03 04:58:32;;;;;;;9.45;8.43;;;16.10;99.90;;;;;;5025269;28;20049;-67
2023/08/03 05:00:59;;;;;;;11.70;7.90;;;16.10;99.90;;;;;;5022814;28;20045;-65
2023/08/03 05:03:27;;;;;;;11.63;8.25;;;16.10;99.90;;;;;;5018637;28;20173;-66
2023/08/03 05:05:54;;;;;;;10.10;8.95;;;16.10;99.90;;;;;;5023299;28;20055;-70
2023/08/03 05:08:22;;;;;;;9.27;8.00;;;16.10;99.90;;;;;;5022414;28;20058;-65
2023/08/03 05:10:51;;;;;;;9.85;8.55;;;16.10;99.90;;;;;;5039831;28;20052;-66
2023/08/03 05:13:21;;;;;;;17.08;9.85;;;16.00;99.90;;;;;;5021284;28;20041;-68
2023/08/03 05:15:48;;;;;;;12.18;8.35;;;16.00;99.90;;;;;;5023789;28;20438;-66
2023/08/03 05:18:15;;;;;;;10.82;7.40;;;16.00;99.90;;;;;;5025857;28;20123;-66
2023/08/03 05:20:42;;;;;;;12.43;8.45;;;16.00;99.90;;;;;;5022511;28;20385;-66
2023/08/03 05:23:12;;;;;;;8.40;7.60;;;16.00;99.90;;;;;;5023589;28;20487;-64
2023/08/03 05:25:39;;;;;;;11.93;7.18;;;16.00;99.90;;;;;;5024143;28;20077;-65
2023/08/03 05:28:06;;;;;;;8.18;6.70;;;16.00;99.90;;;;;;5023122;28;20053;-67
2023/08/03 05:30:33;;;;;;;9.15;6.28;;;16.10;99.90;;;;;;5022537;28;20037;-65
2023/08/03 05:33:02;;;;;;;24.45;8.75;;;16.10;99.90;;;;;;5022749;28;20041;-65
2023/08/03 05:35:29;;;;;;;10.38;7.80;;;16.20;99.90;;;;;;5020953;28;20038;-67
2023/08/03 05:37:56;;;;;;;10.00;8.15;;;16.20;99.90;;;;;;5022859;28;20060;-65
2023/08/03 05:40:23;;;;;;;12.02;7.45;;;16.20;99.90;;;;;;5021788;28;20049;-66
2023/08/03 05:42:50;;;;;;;10.68;7.85;;;16.30;99.90;;;;;;5020213;28;20132;-64
2023/08/03 05:45:37;;;;;;;9.63;7.72;;;16.30;99.90;;;;;;5020532;28;20069;-64
2023/08/03 05:48:14;;;;;;;9.38;7.45;;;16.40;99.90;;;;;;5022676;28;20146;-65
2023/08/03 05:50:43;;;;;;;9.43;8.23;;;16.40;99.90;;;;;;5022722;28;20038;-65
2023/08/03 05:53:11;;;;;;;8.73;7.75;;;16.50;99.90;;;;;;5020091;28;20045;-67
2023/08/03 05:55:38;;;;;;;8.70;7.20;;;16.50;99.90;;;;;;5021885;28;20095;-65
2023/08/03 05:58:08;;;;;;;15.13;8.52;;;16.50;99.90;;;;;;5025439;28;20069;-66
2023/08/03 06:00:35;;;;;;;11.55;7.88;;;16.50;99.90;;;;;;5023171;28;20045;-67
2023/08/03 06:03:03;;;;;;;7.97;7.18;;;16.50;99.90;;;;;;5021725;28;20045;-65
2023/08/03 06:05:41;;;;;;;8.43;7.53;;;16.50;99.90;;;;;;5025365;28;20072;-66
2023/08/03 06:08:12;;;;;;;18.38;9.52;;;16.60;99.90;;;;;;5021988;28;20174;-65
2023/08/03 06:10:39;;;;;;;8.27;7.28;;;16.60;99.90;;;;;;5020193;28;20077;-65
2023/08/03 06:13:09;;;;;;;11.68;6.80;;;16.60;99.90;;;;;;5018943;28;20053;-65
2023/08/03 06:15:37;;;;;;;7.35;6.65;;;16.60;99.90;;;;;;5022336;28;20073;-65
2023/08/03 06:18:08;;;;;;;11.38;7.05;;;16.60;99.90;;;;;;5025160;28;20041;-66
2023/08/03 06:20:35;;;;;;;8.25;6.93;;;16.60;99.90;;;;;;5024318;28;20099;-65
2023/08/03 06:23:03;;;;;;;11.95;7.72;;;16.60;99.90;;;;;;5024037;28;20106;-66
2023/08/03 06:25:30;;;;;;;9.02;6.10;;;16.60;99.90;;;;;;5023703;28;20049;-67
2023/08/03 06:28:00;;;;;;;10.25;5.35;;;16.60;99.90;;;;;;5022443;28;20430;-68
2023/08/03 06:30:27;;;;;;;7.63;4.85;;;16.70;99.90;;;;;;5019872;28;20045;-67
2023/08/03 06:32:54;;;;;;;5.45;4.43;;;16.60;99.90;;;;;;5023573;28;20091;-69
2023/08/03 06:35:55;;;;;;;4.50;4.10;;;16.70;99.90;;;;;;5021088;28;20045;-68
2023/08/03 06:38:23;;;;;;;3.88;3.05;;;16.70;99.90;;;;;;5020286;28;20100;-68
2023/08/03 06:40:50;;;;;;;2.97;2.35;;;16.70;99.90;;;;;;5024117;28;20049;-66
2023/08/03 06:43:17;;;;;;;2.72;2.28;;;16.70;99.90;;;;;;5019247;28;20052;-66
2023/08/03 06:45:45;;;;;;;4.20;3.00;;;16.70;99.90;;;;;;5023432;28;20073;-66
2023/08/03 06:48:12;;;;;;;8.00;2.75;;;16.70;99.90;;;;;;5024254;28;20038;-65
2023/08/03 06:50:39;;;;;;;4.80;2.50;;;16.80;99.90;;;;;;5023221;28;20053;-66
2023/08/03 06:53:06;;;;;;;5.97;3.33;;;16.80;99.90;;;;;;5021507;28;20790;-67
2023/08/03 06:55:33;;;;;;;7.38;4.00;;;16.80;99.90;;;;;;5024222;28;20726;-66
2023/08/03 06:58:00;;;;;;;2.65;2.45;;;16.80;99.90;;;;;;5028131;28;20095;-66
2023/08/03 07:00:27;;;;;;;3.65;2.60;;;16.80;99.90;;;;;;5021274;28;20121;-67
2023/08/03 07:02:54;;;;;;;6.00;3.45;;;16.90;99.90;;;;;;5020996;28;20038;-66
2023/08/03 07:05:24;;;;;;;;;;;16.90;99.90;;;;;;5020417;28;20406;-66
2023/08/03 07:07:51;;;;;;;4.35;2.67;;;16.90;99.90;;;;;;5024036;28;19960;-67
2023/08/03 07:10:18;;;;;;;3.47;3.00;;;16.90;99.90;;;;;;5016756;28;20081;-66
2023/08/03 07:12:45;;;;;;;4.32;3.05;;;16.80;99.90;;;;;;5021729;28;20665;-66
2023/08/03 07:15:12;;;;;;;6.47;3.22;;;16.80;99.90;;;;;;5020648;28;20053;-67
2023/08/03 07:17:39;;;;;;;6.50;3.40;;;16.80;99.90;;;;;;5022578;28;20107;-66
2023/08/03 07:20:08;;;;;;;4.82;3.33;;;16.80;99.90;;;;;;5021862;28;20097;-68
2023/08/03 07:22:36;;;;;;;9.88;3.50;;;16.90;99.90;;;;;;5038882;28;20081;-68
2023/08/03 07:25:04;;;;;;;6.88;4.13;;;16.80;99.90;;;;;;5023105;28;20459;-65
2023/08/03 07:27:32;;;;;;;7.75;4.65;;;16.80;99.90;;;;;;5022381;28;20072;-67
2023/08/03 07:29:59;;;;;;;7.80;3.67;;;16.80;99.90;;;;;;5018349;28;20380;-69
2023/08/03 07:32:25;;;;;;;9.35;4.25;;;16.90;99.90;;;;;;5021083;28;20111;-65
2023/08/03 07:34:53;;;;;;;15.60;5.50;;;16.90;99.90;;;;;;5023292;28;20547;-65
2023/08/03 07:37:19;;;;;;;4.93;3.88;;;16.80;99.90;;;;;;5023872;28;20045;-67
2023/08/03 07:39:46;;;;;;;7.95;3.90;;;16.80;99.90;;;;;;5026436;28;20111;-65
2023/08/03 07:42:13;;;;;;;13.60;4.55;;;16.90;99.90;;;;;;5025793;28;20083;-66
2023/08/03 07:44:40;;;;;;;10.57;4.30;;;16.80;99.90;;;;;;5020605;28;20033;-67
2023/08/03 07:47:10;;;;;;;7.03;3.55;;;16.80;99.90;;;;;;5025015;28;20064;-66
2023/08/03 07:49:37;;;;;;;4.93;3.28;;;16.90;99.90;;;;;;5020317;28;20042;-66
2023/08/03 07:52:04;;;;;;;6.63;3.67;;;16.90;99.90;;;;;;5028566;28;20120;-66
2023/08/03 07:54:31;;;;;;;6.95;3.28;;;16.90;99.90;;;;;;5025585;28;20104;-65
2023/08/03 07:56:58;;;;;;;5.28;4.78;;;16.90;99.90;;;;;;5020669;28;20080;-66
2023/08/03 07:59:25;;;;;;;8.18;4.28;;;17.00;99.90;;;;;;5020404;28;20218;-69
2023/08/03 08:01:51;;;;;;;6.13;3.88;;;17.10;99.90;;;;;;5025275;28;20490;-65
2023/08/03 08:04:18;;;;;;;6.30;3.95;;;17.10;99.90;;;;;;5028096;28;20159;-66
2023/08/03 08:06:45;;;;;;;5.45;4.78;;;17.10;99.90;;;;;;5025465;28;20100;-68
2023/08/03 08:09:12;;;;;;;6.20;4.15;;;17.10;99.90;;;;;;5023300;28;20033;-65
2023/08/03 08:11:39;;;;;;;15.25;5.15;;;17.10;99.90;;;;;;5026675;28;20048;-67
2023/08/03 08:14:06;;;;;;;6.32;4.63;;;17.10;99.90;;;;;;5022341;28;20041;-65
2023/08/03 08:16:33;;;;;;;5.18;4.68;;;17.10;99.90;;;;;;5024676;28;20068;-67
2023/08/03 08:19:00;;;;;;;9.43;6.10;;;17.20;99.90;;;;;;5026126;28;20051;-66
2023/08/03 08:21:27;;;;;;;6.63;5.20;;;17.30;99.90;;;;;;5024398;28;20052;-69
2023/08/03 08:23:54;;;;;;;9.85;6.40;;;17.40;99.90;;;;;;5022498;28;20045;-66
2023/08/03 08:26:21;;;;;;;9.80;5.47;;;17.50;99.90;;;;;;5027022;28;20041;-67
2023/08/03 08:28:48;;;;;;;6.93;5.40;;;17.50;99.90;;;;;;5028697;28;20445;-66
2023/08/03 08:31:29;;;;;;;9.30;5.80;;;17.60;99.90;;;;;;5025267;28;20061;-65
2023/08/03 08:33:59;;;;;;;13.18;7.07;;;17.70;99.90;;;;;;5024510;28;20348;-66
2023/08/03 08:36:26;;;;;;;9.73;4.70;;;17.70;99.90;;;;;;5025250;28;20535;-66
2023/08/03 08:38:53;;;;;;;12.55;5.32;;;17.90;99.90;;;;;;5023523;28;20391;-66
2023/08/03 08:41:20;;;;;;;11.80;5.75;;;17.90;99.90;;;;;;5026121;28;20037;-66
2023/08/03 08:43:47;;;;;;;8.55;4.47;;;18.00;99.90;;;;;;5026025;28;20053;-66
2023/08/03 08:46:14;;;;;;;7.40;4.63;;;18.00;99.90;;;;;;5024586;28;20034;-65
2023/08/03 08:48:41;;;;;;;8.30;5.85;;;18.10;99.90;;;;;;5027570;28;20034;-66
2023/08/03 08:51:12;;;;;;;9.93;4.47;;;18.20;99.90;;;;;;5022782;28;20041;-69
2023/08/03 08:53:39;;;;;;;6.35;4.03;;;18.20;99.90;;;;;;5018960;28;20086;-69
2023/08/03 08:56:09;;;;;;;10.65;5.18;;;18.20;99.90;;;;;;5021261;28;20041;-67
2023/08/03 08:58:56;;;;;;;8.73;5.38;;;18.20;99.90;;;;;;5023025;28;20056;-65
2023/08/03 09:01:25;;;;;;;6.63;4.40;;;18.20;99.90;;;;;;5020543;28;20042;-66
2023/08/03 09:03:54;;;;;;;7.57;4.85;;;18.20;99.90;;;;;;5025200;28;20048;-66
2023/08/03 09:06:24;;;;;;;9.82;5.57;;;18.40;99.90;;;;;;5020196;28;20075;-66
2023/08/03 09:08:58;;;;;;;12.05;4.90;;;18.60;99.90;;;;;;5023400;28;20061;-66
2023/08/03 09:11:38;;;;;;;6.85;4.47;;;18.90;99.90;;;;;;5022239;28;20419;-65
2023/08/03 09:14:07;;;;;;;4.72;4.28;;;19.20;99.90;;;;;;5017547;28;20135;-65
2023/08/03 09:16:35;;;;;;;5.50;4.93;;;19.30;99.90;;;;;;5024367;28;20492;-65
2023/08/03 09:19:02;;;;;;;7.07;4.28;;;19.40;99.90;;;;;;5023896;28;20080;-69
2023/08/03 09:21:29;;;;;;;10.18;4.90;;;19.40;99.90;;;;;;5026949;28;20076;-66
2023/08/03 09:24:15;;;;;;;4.85;3.22;;;19.50;99.90;;;;;;5022609;28;20053;-66
2023/08/03 09:26:45;;;;;;;7.15;4.55;;;19.40;99.90;;;;;;5024530;28;20099;-66
2023/08/03 09:29:14;;;;;;;7.75;3.60;;;19.20;99.90;;;;;;5020882;28;20474;-66
2023/08/03 09:31:47;;;;;;;4.18;2.60;;;19.20;99.90;;;;;;5025203;28;20053;-66
2023/08/03 09:34:16;;;;;;;5.35;2.60;;;19.20;99.90;;;;;;5022541;28;20046;-66
2023/08/03 09:36:48;;;;;;;4.10;3.38;;;19.30;99.90;;;;;;5023514;28;20391;-68
2023/08/03 09:39:37;;;;;;;5.03;4.60;;;19.30;99.90;;;;;;5021223;28;20046;-67
2023/08/03 09:42:06;;;;;;;5.28;3.35;;;19.40;99.90;;;;;;5024937;28;20051;-67
2023/08/03 09:44:34;;;;;;;3.75;3.45;;;19.40;99.90;;;;;;5016429;28;20037;-68
2023/08/03 09:47:17;;;;;;;4.10;2.85;;;19.30;99.90;;;;;;5024615;28;20049;-67
2023/08/03 09:49:44;;;;;;;3.50;3.10;;;19.20;99.90;;;;;;5024405;28;20107;-68
2023/08/03 09:52:14;;;;;;;4.78;3.00;;;19.20;99.90;;;;;;5025709;28;20037;-68
2023/08/03 09:54:55;;;;;;;3.17;2.65;;;19.30;99.90;;;;;;5019978;28;20099;-66
2023/08/03 09:57:29;;;;;;;8.57;4.03;;;19.30;99.90;;;;;;5025085;28;20422;-67
2023/08/03 10:00:03;;;;;;;3.90;3.55;;;19.50;99.90;;;;;;5025095;28;20060;-69
2023/08/03 10:02:48;;;;;;;11.27;4.00;;;19.60;99.90;;;;;;5022148;28;20411;-67
2023/08/03 10:05:18;;;;;;;3.90;2.65;;;19.70;99.90;;;;;;5026117;28;20116;-68
2023/08/03 10:08:03;;;;;;;5.38;2.53;;;19.80;99.90;;;;;;5020949;28;20046;-66
2023/08/03 10:10:36;;;;;;;4.05;3.05;;;19.70;99.90;;;;;;5022268;28;20163;-67
2023/08/03 10:13:07;;;;;;;3.30;2.50;;;19.80;99.90;;;;;;5023296;28;20037;-66
2023/08/03 10:15:34;;;;;;;7.60;3.80;;;19.80;99.90;;;;;;5022131;28;20037;-67
2023/08/03 10:18:05;;;;;;;2.53;2.33;;;20.00;99.90;;;;;;5019552;28;20454;-67
2023/08/03 10:20:34;;;;;;;4.63;2.42;;;20.20;99.90;;;;;;5021647;28;20045;-68
2023/08/03 10:23:11;;;;;;;3.63;2.35;;;20.30;99.90;;;;;;5020992;28;20085;-66
2023/08/03 10:25:54;;;;;;;2.47;2.28;;;20.30;99.90;;;;;;5017564;28;20049;-67
2023/08/03 10:28:48;;;;;;;5.18;2.28;;;20.30;99.90;;;;;;5021196;28;20111;-67
2023/08/03 10:31:19;;;;;;;4.10;3.05;;;20.40;99.90;;;;;;5021169;28;20073;-67
2023/08/03 10:33:51;;;;;;;2.63;2.42;;;20.30;99.90;;;;;;5020383;28;20034;-67
2023/08/03 10:36:27;;;;;;;;;;;20.30;99.90;;;;;;5024455;28;20551;-66
2023/08/03 10:39:16;;;;;;;4.10;2.42;;;20.30;99.90;;;;;;5017348;28;19928;-67
2023/08/03 10:41:45;;;;;;;3.03;2.10;;;20.40;99.90;;;;;;5024713;28;20041;-66
2023/08/03 10:44:13;;;;;;;2.47;2.28;;;20.40;99.90;;;;;;5021838;28;20049;-66
2023/08/03 10:46:54;;;;;;;3.38;2.08;;;20.40;99.90;;;;;;5021552;28;20749;-66
2023/08/03 10:49:22;;;;;;;5.68;2.53;;;20.50;99.90;;;;;;5022809;28;20136;-66
2023/08/03 10:51:54;;;;;;;2.20;1.90;;;20.40;99.90;;;;;;5019904;28;20632;-67
2023/08/03 10:54:31;;;;;;;2.70;1.70;;;20.40;99.90;;;;;;5021945;28;20049;-66
2023/08/03 10:57:05;;;;;;;3.63;2.90;;;20.30;99.90;;;;;;5022881;28;20038;-65
2023/08/03 10:59:36;;;;;;;3.58;2.42;;;20.20;99.90;;;;;;5020684;28;20042;-66
2023/08/03 11:02:18;;;;;;;5.10;2.50;;;20.10;99.90;;;;;;5022277;28;20116;-67
2023/08/03 11:04:46;;;;;;;4.53;2.33;;;20.00;99.90;;;;;;5021235;28;20172;-66
2023/08/03 11:07:17;;;;;;;4.40;2.47;;;20.00;99.90;;;;;;5020214;28;20173;-66
2023/08/03 11:09:48;;;;;;;2.90;2.53;;;20.20;99.90;;;;;;5022784;28;20104;-66
2023/08/03 11:12:18;;;;;;;4.78;1.95;;;20.40;99.90;;;;;;5026807;28;20590;-68
2023/08/03 11:14:48;;;;;;;2.72;2.53;;;20.60;99.90;;;;;;5026569;28;20467;-67
2023/08/03 11:17:15;;;;;;;12.75;3.22;;;20.70;99.90;;;;;;5025726;28;20042;-67
2023/08/03 11:19:43;;;;;;;2.78;2.20;;;20.60;99.90;;;;;;5024825;28;20116;-66
2023/08/03 11:22:11;;;;;;;3.20;2.90;;;20.60;99.90;;;;;;5026387;28;20077;-67
2023/08/03 11:24:39;;;;;;;3.10;2.58;;;20.50;99.90;;;;;;5025268;28;20510;-65
2023/08/03 11:27:06;;;;;;;3.00;1.90;;;20.50;99.90;;;;;;5024836;28;20591;-66
2023/08/03 11:29:36;;;;;;;3.97;2.20;;;20.60;99.90;;;;;;5026378;28;20125;-66
2023/08/03 11:32:05;;;;;;;3.20;2.22;;;20.90;99.90;;;;;;5025607;28;20041;-66
2023/08/03 11:34:35;;;;;;;2.05;1.85;;;21.00;99.90;;;;;;5028027;28;20092;-66
2023/08/03 11:37:02;;;;;;;2.47;2.28;;;20.90;99.90;;;;;;5042417;28;20049;-67
2023/08/03 11:39:29;;;;;;;3.08;1.70;;;20.80;99.90;;;;;;5026136;28;20538;-66
2023/08/03 11:41:56;;;;;;;2.75;1.67;;;20.70;99.90;;;;;;5025893;28;20076;-66
2023/08/03 11:44:24;;;;;;;5.07;2.28;;;20.60;99.90;;;;;;5026066;28;20128;-66
2023/08/03 11:47:05;;;;;;;3.85;2.17;;;20.60;99.90;;;;;;5026637;28;20053;-66
2023/08/03 11:49:32;;;;;;;7.47;3.10;;;20.70;99.90;;;;;;5025943;28;20129;-67
2023/08/03 11:52:02;;;;;;;2.00;1.52;;;21.10;99.90;;;;;;5027672;28;20045;-66
2023/08/03 11:54:31;;;;;;;1.77;1.60;;;21.20;99.90;;;;;;5025145;28;20157;-67
2023/08/03 11:59:47;;;;;;;3.35;2.08;;;21.00;99.90;;;;;;5022657;28;20812;-67
2023/08/03 12:02:14;;;;;;;3.00;1.80;;;20.80;99.90;;;;;;5024870;28;20506;-67
2023/08/03 12:04:42;;;;;;;2.05;1.83;;;20.80;99.90;;;;;;5025988;28;20068;-66
2023/08/03 12:07:13;;;;;;;2.47;2.13;;;20.60;99.90;;;;;;5024610;28;20064;-67
2023/08/03 12:09:43;;;;;;;6.00;1.98;;;20.60;99.90;;;;;;5024483;28;20072;-66
2023/08/03 12:12:11;;;;;;;4.18;2.13;;;20.40;99.90;;;;;;5026040;28;20523;-66
2023/08/03 12:14:39;;;;;;;2.63;1.75;;;20.40;99.90;;;;;;5019543;28;20046;-66
2023/08/03 12:17:13;;;;;;;4.07;2.05;;;20.40;99.90;;;;;;5026439;28;20049;-66
2023/08/03 12:19:40;;;;;;;3.97;2.15;;;20.40;99.90;;;;;;5024725;28;20111;-66
2023/08/03 12:22:07;;;;;;;4.10;2.10;;;20.40;99.90;;;;;;5025414;28;20479;-67
2023/08/03 12:24:38;;;;;;;6.75;2.08;;;20.40;99.90;;;;;;5025951;28;20125;-66
2023/08/03 12:27:05;;;;;;;4.63;2.72;;;20.50;99.90;;;;;;5027178;28;20120;-69
2023/08/03 12:29:36;;;;;;;5.03;1.70;;;20.70;99.90;;;;;;5022809;28;20041;-66
2023/08/03 12:32:08;;;;;;;2.85;1.75;;;21.00;99.90;;;;;;5024448;28;20678;-65
2023/08/03 12:34:35;;;;;;;5.22;1.73;;;21.30;99.90;;;;;;5021126;28;20042;-65
2023/08/03 12:37:02;;;;;;;6.07;2.15;;;21.40;99.90;;;;;;5021260;28;20050;-69
2023/08/03 12:39:29;;;;;;;3.35;2.10;;;21.50;99.90;;;;;;5017019;28;20458;-66
2023/08/03 12:41:56;;;;;;;5.13;1.98;;;21.50;99.90;;;;;;5019852;28;20403;-65
2023/08/03 12:44:26;;;;;;;1.80;1.40;;;21.60;99.90;;;;;;5022947;28;20064;-66
2023/08/03 12:46:53;;;;;;;3.10;1.83;;;21.80;99.90;;;;;;5022022;28;20042;-65
2023/08/03 12:49:21;;;;;;;1.80;1.70;;;21.90;99.90;;;;;;5021853;28;20052;-67
2023/08/03 12:51:48;;;;;;;5.25;1.65;;;21.80;99.90;;;;;;5019694;28;20124;-67
2023/08/03 12:54:14;;;;;;;3.50;1.65;;;21.90;99.90;;;;;;5021013;28;20056;-67
2023/08/03 12:56:41;;;;;;;2.38;2.00;;;22.00;99.90;;;;;;5023357;28;20041;-67